createdAt,value
2023-03-25T00:00:19.707Z,97103.69
2023-03-25T00:02:49.370Z,97086.69
2023-03-25T00:05:19.083Z,97084.72
2023-03-25T00:07:48.340Z,97074.41
2023-03-25T00:10:15.515Z,97075.22
2023-03-25T00:12:43.494Z,97087.09
2023-03-25T00:15:13.588Z,97117.06
2023-03-25T00:17:40.457Z,97117.44
2023-03-25T00:20:11.405Z,97144.72
2023-03-25T00:22:42.648Z,97147.06
2023-03-25T00:25:11.178Z,97062.56
2023-03-25T00:27:38.374Z,97173.34
2023-03-25T00:30:05.628Z,97192.06
2023-03-25T00:32:32.179Z,97227.09
2023-03-25T00:35:01.105Z,97261.34
2023-03-25T00:37:28.276Z,97267.06
2023-03-25T00:39:54.859Z,97277.16
2023-03-25T00:42:27.780Z,97283.38
2023-03-25T00:44:54.603Z,97287.66
2023-03-25T00:47:22.035Z,97300.22
2023-03-25T00:49:49.544Z,97276.94
2023-03-25T00:52:16.133Z,97294.47
2023-03-25T00:54:43.287Z,97290.03
2023-03-25T00:57:09.904Z,97286.06
2023-03-25T00:59:36.456Z,97300.06
2023-03-25T01:02:03.732Z,97293.16
2023-03-25T01:04:30.302Z,97283.13
2023-03-25T01:06:57.033Z,97259.38
2023-03-25T01:09:39.501Z,97246.19
2023-03-25T01:12:06.324Z,97239.59
2023-03-25T01:14:33.011Z,97234.66
2023-03-25T01:17:00.606Z,97266.13
2023-03-25T01:19:27.463Z,97261.34
2023-03-25T01:21:57.435Z,97283.38
2023-03-25T01:24:23.891Z,97279.72
2023-03-25T01:26:50.503Z,97276.44
2023-03-25T01:29:21.979Z,97274.44
2023-03-25T01:31:49.382Z,97274.09
2023-03-25T01:34:16.324Z,97268.81
2023-03-25T01:36:46.365Z,97290.63
2023-03-25T01:39:16.702Z,97292.28
2023-03-25T01:41:50.312Z,97293.94
2023-03-25T01:44:20.639Z,97289.84
2023-03-25T01:46:49.616Z,97289.50
2023-03-25T01:49:23.760Z,97308.13
2023-03-25T01:51:58.241Z,97294.63
2023-03-25T01:54:25.185Z,97299.41
2023-03-25T01:56:52.270Z,97299.28
2023-03-25T01:59:20.975Z,97304.53
2023-03-25T02:01:48.499Z,97286.06
2023-03-25T02:04:27.259Z,97287.41
2023-03-25T02:06:54.857Z,97274.59
2023-03-25T02:09:24.916Z,97272.28
2023-03-25T02:11:54.782Z,97272.91
2023-03-25T02:14:26.929Z,97290.41
2023-03-25T02:17:23.702Z,97261.72
2023-03-25T02:20:13.812Z,97290.09
2023-03-25T02:22:55.097Z,97314.16
2023-03-25T02:25:40.655Z,97313.78
2023-03-25T02:28:25.733Z,97313.44
2023-03-25T02:31:30.281Z,97318.59
2023-03-25T02:34:15.385Z,97340.69
2023-03-25T02:36:50.020Z,97352.91
2023-03-25T02:39:28.209Z,97377.16
2023-03-25T02:41:54.570Z,97384.44
2023-03-25T02:44:31.520Z,97377.53
2023-03-25T02:47:04.054Z,97385.75
2023-03-25T02:49:36.678Z,97395.63
2023-03-25T02:52:20.810Z,97399.59
2023-03-25T02:54:58.120Z,97405.88
2023-03-25T02:57:30.516Z,97409.50
2023-03-25T02:59:57.985Z,97406.03
2023-03-25T03:02:27.531Z,97405.75
2023-03-25T03:04:56.847Z,97409.50
2023-03-25T03:07:32.030Z,97420.56
2023-03-25T03:10:20.532Z,97422.72
2023-03-25T03:13:19.250Z,97417.44
2023-03-25T03:16:14.356Z,97412.84
2023-03-25T03:19:21.189Z,97407.06
2023-03-25T03:21:58.889Z,97401.81
2023-03-25T03:24:48.885Z,97414.84
2023-03-25T03:27:34.235Z,97433.31
2023-03-25T03:30:11.119Z,97439.41
2023-03-25T03:32:49.832Z,97436.28
2023-03-25T03:35:24.658Z,97429.69
2023-03-25T03:37:58.124Z,97421.44
2023-03-25T03:40:27.532Z,97426.38
2023-03-25T03:43:08.586Z,97413.22
2023-03-25T03:45:42.762Z,97405.47
2023-03-25T03:48:16.821Z,97403.34
2023-03-25T03:50:50.884Z,97404.97
2023-03-25T03:53:26.471Z,97407.81
2023-03-25T03:56:05.418Z,97407.31
2023-03-25T03:58:36.398Z,97384.59
2023-03-25T04:01:11.949Z,97388.19
2023-03-25T04:03:43.403Z,97382.44
2023-03-25T04:06:16.030Z,97379.13
2023-03-25T04:09:05.561Z,97382.59
2023-03-25T04:12:04.078Z,97366.78
2023-03-25T04:14:30.736Z,97366.78
2023-03-25T04:16:57.112Z,97335.16
2023-03-25T04:19:24.630Z,97350.97
2023-03-25T04:21:51.064Z,97346.69
2023-03-25T04:24:19.861Z,97336.47
2023-03-25T04:26:47.630Z,97328.25
2023-03-25T04:29:17.679Z,97331.22
2023-03-25T04:31:46.268Z,97327.28
2023-03-25T04:34:16.445Z,97309.81
2023-03-25T04:36:46.867Z,97317.38
2023-03-25T04:39:13.280Z,97307.19
2023-03-25T04:41:39.920Z,97289.75
2023-03-25T04:44:09.259Z,97292.88
2023-03-25T04:46:37.093Z,97272.25
2023-03-25T04:49:19.143Z,97271.63
2023-03-25T04:51:45.637Z,97263.72
2023-03-25T04:54:12.159Z,97262.38
2023-03-25T04:56:39.796Z,97250.69
2023-03-25T04:59:06.615Z,97240.88
2023-03-25T05:01:38.164Z,97239.53
2023-03-25T05:04:09.200Z,97213.41
2023-03-25T05:06:40.664Z,97165.03
2023-03-25T05:09:09.742Z,97142.00
2023-03-25T05:11:39.675Z,97096.59
2023-03-25T05:14:07.014Z,97071.81
2023-03-25T05:16:35.096Z,97027.56
2023-03-25T05:19:03.561Z,96998.78
2023-03-25T05:21:31.731Z,96981.69
2023-03-25T05:23:58.561Z,96953.59
2023-03-25T05:26:25.535Z,96927.28
2023-03-25T05:28:52.006Z,96899.16
2023-03-25T05:31:19.737Z,96875.66
2023-03-25T05:33:46.445Z,96846.75
2023-03-25T05:36:14.117Z,96822.44
2023-03-25T05:38:46.818Z,96795.47
2023-03-25T05:41:16.620Z,96776.38
2023-03-25T05:43:47.535Z,96755.19
2023-03-25T05:46:19.900Z,96733.06
2023-03-25T05:48:46.620Z,96732.72
2023-03-25T05:51:17.993Z,96746.50
2023-03-25T05:53:49.935Z,96742.38
2023-03-25T05:56:21.585Z,96744.66
2023-03-25T05:58:50.159Z,96753.28
2023-03-25T06:01:33.664Z,96760.66
2023-03-25T06:04:02.232Z,96776.56
2023-03-25T06:06:29.842Z,96788.72
2023-03-25T06:08:56.489Z,96810.03
2023-03-25T06:11:22.890Z,96825.38
2023-03-25T06:13:52.086Z,96814.81
2023-03-25T06:16:29.807Z,96832.25
2023-03-25T06:19:00.682Z,96853.41
2023-03-25T06:21:29.191Z,96855.53
2023-03-25T06:23:57.768Z,96873.44
2023-03-25T06:26:24.698Z,96882.59
2023-03-25T06:28:51.199Z,96903.25
2023-03-25T06:31:34.145Z,96932.88
2023-03-25T06:34:01.494Z,96959.09
2023-03-25T06:36:28.238Z,96969.13
2023-03-25T06:38:54.720Z,96988.06
2023-03-25T06:41:21.782Z,97018.38
2023-03-25T06:43:51.176Z,97032.22
2023-03-25T06:46:17.779Z,97044.03
2023-03-25T06:48:44.245Z,97065.47
2023-03-25T06:51:11.073Z,97087.84
2023-03-25T06:53:37.693Z,97131.16
2023-03-25T06:56:04.741Z,97147.16
2023-03-25T06:58:35.525Z,97148.75
2023-03-25T07:01:07.509Z,97156.97
2023-03-25T07:03:36.406Z,97165.19
2023-03-25T07:06:04.477Z,97172.72
2023-03-25T07:08:31.091Z,97193.50
2023-03-25T07:11:06.730Z,97215.19
2023-03-25T07:13:34.921Z,97228.56
2023-03-25T07:16:02.117Z,97239.56
2023-03-25T07:18:28.892Z,97260.59
2023-03-25T07:20:55.411Z,97301.38
2023-03-25T07:23:22.012Z,97348.72
2023-03-25T07:25:48.855Z,97396.13
2023-03-25T07:28:15.741Z,97476.50
2023-03-25T07:30:42.596Z,97445.47
2023-03-25T07:33:09.790Z,97484.22
2023-03-25T07:35:36.736Z,97525.72
2023-03-25T07:38:04.015Z,97505.25
2023-03-25T07:40:42.828Z,97553.69
2023-03-25T07:43:12.362Z,97565.81
2023-03-25T07:45:43.939Z,97602.03
2023-03-25T07:48:14.844Z,97585.22
2023-03-25T07:50:42.399Z,97563.03
2023-03-25T07:53:10.138Z,97599.47
2023-03-25T07:55:39.002Z,97622.88
2023-03-25T07:58:05.633Z,97626.50
2023-03-25T08:00:32.485Z,97605.56
2023-03-25T08:02:59.236Z,97566.25
2023-03-25T08:05:25.794Z,97585.56
2023-03-25T08:07:53.189Z,97630.56
2023-03-25T08:10:19.846Z,97675.81
2023-03-25T08:12:46.361Z,97646.06
2023-03-25T08:15:13.286Z,97621.50
2023-03-25T08:17:40.606Z,97652.59
2023-03-25T08:20:07.823Z,97618.06
2023-03-25T08:22:34.427Z,97596.41
2023-03-25T08:25:00.946Z,97587.72
2023-03-25T08:27:27.450Z,97615.03
2023-03-25T08:29:57.949Z,97570.22
2023-03-25T08:32:26.240Z,97563.81
2023-03-25T08:34:52.966Z,97582.34
2023-03-25T08:37:19.777Z,97630.31
2023-03-25T08:39:50.105Z,97607.84
2023-03-25T08:42:17.786Z,97623.19
2023-03-25T08:44:44.296Z,97625.91
2023-03-25T08:47:11.385Z,97644.69
2023-03-25T08:49:37.853Z,97623.66
2023-03-25T08:52:08.340Z,97621.91
2023-03-25T08:54:34.897Z,97631.94
2023-03-25T08:57:01.847Z,97626.09
2023-03-25T08:59:28.524Z,97608.59
2023-03-25T09:01:56.685Z,97604.69
2023-03-25T09:04:24.265Z,97605.28
2023-03-25T09:07:11.177Z,97607.94
2023-03-25T09:09:38.603Z,97615.50
2023-03-25T09:12:06.675Z,97590.44
2023-03-25T09:14:33.870Z,97607.88
2023-03-25T09:17:00.547Z,97629.34
2023-03-25T09:19:27.521Z,97637.03
2023-03-25T09:21:54.367Z,97627.19
2023-03-25T09:24:22.785Z,97637.13
2023-03-25T09:26:49.632Z,97656.28
2023-03-25T09:29:16.541Z,97662.50
2023-03-25T09:31:43.301Z,97684.44
2023-03-25T09:34:09.903Z,97672.13
2023-03-25T09:36:37.218Z,97688.44
2023-03-25T09:39:03.920Z,97674.91
2023-03-25T09:41:58.223Z,97655.81
2023-03-25T09:44:24.549Z,97672.41
2023-03-25T09:46:53.577Z,97628.41
2023-03-25T09:49:25.102Z,97630.03
2023-03-25T09:51:53.595Z,97628.78
2023-03-25T09:54:44.878Z,97633.31
2023-03-25T09:57:18.168Z,97582.78
2023-03-25T09:59:49.061Z,97563.03
2023-03-25T10:02:24.571Z,97591.75
2023-03-25T10:05:16.027Z,97597.66
2023-03-25T10:08:04.497Z,97593.47
2023-03-25T10:10:40.498Z,97512.75
2023-03-25T10:13:20.671Z,97487.13
2023-03-25T10:16:11.919Z,97467.69
2023-03-25T10:19:00.024Z,97446.16
2023-03-25T10:21:58.611Z,97502.81
2023-03-25T10:24:42.855Z,97511.63
2023-03-25T10:27:19.670Z,97531.00
2023-03-25T10:30:21.360Z,97576.94
2023-03-25T10:32:54.925Z,97584.75
2023-03-25T10:35:46.009Z,97613.69
2023-03-25T10:38:18.798Z,97621.78
2023-03-25T10:40:50.367Z,97612.31
2023-03-25T10:43:34.555Z,97578.50
2023-03-25T10:46:21.378Z,97546.44
2023-03-25T10:48:48.978Z,97573.16
2023-03-25T10:51:27.255Z,97499.03
2023-03-25T10:53:54.338Z,97410.06
2023-03-25T10:56:27.593Z,97321.09
2023-03-25T10:58:56.565Z,97244.38
2023-03-25T11:01:39.676Z,97246.25
2023-03-25T11:04:08.540Z,97153.91
2023-03-25T11:06:39.970Z,97091.94
2023-03-25T11:09:23.521Z,96948.72
2023-03-25T11:11:51.115Z,96991.25
2023-03-25T11:14:26.210Z,97008.66
2023-03-25T11:16:57.443Z,96962.34
2023-03-25T11:19:41.997Z,96965.66
2023-03-25T11:22:31.000Z,96984.50
2023-03-25T11:25:06.899Z,96982.69
2023-03-25T11:27:44.705Z,96958.88
2023-03-25T11:30:17.751Z,96953.50
2023-03-25T11:32:44.355Z,97024.56
2023-03-25T11:35:22.224Z,97087.50
2023-03-25T11:37:56.644Z,97122.84
2023-03-25T11:40:23.252Z,97132.53
2023-03-25T11:42:58.630Z,97115.44
2023-03-25T11:45:35.167Z,97145.34
2023-03-25T11:48:11.658Z,97154.88
2023-03-25T11:50:44.180Z,97186.28
2023-03-25T11:53:16.309Z,97187.03
2023-03-25T11:55:47.885Z,97235.63
2023-03-25T11:58:17.454Z,97259.16
2023-03-25T12:00:53.653Z,97305.19
2023-03-25T12:03:27.411Z,97369.56
2023-03-25T12:06:12.718Z,97378.72
2023-03-25T12:08:49.882Z,97429.66
2023-03-25T12:11:42.531Z,97502.72
2023-03-25T12:14:27.816Z,97557.69
2023-03-25T12:17:25.006Z,97603.09
2023-03-25T12:20:13.344Z,97572.38
2023-03-25T12:22:51.761Z,97579.50
2023-03-25T12:25:42.528Z,97523.59
2023-03-25T12:28:30.901Z,97548.75
2023-03-25T12:31:20.580Z,97507.22
2023-03-25T12:34:06.316Z,97547.44
2023-03-25T12:36:41.795Z,97473.41
2023-03-25T12:39:45.974Z,97473.50
2023-03-25T12:42:12.401Z,97467.97
2023-03-25T12:45:17.600Z,97519.97
2023-03-25T12:48:12.501Z,97554.28
2023-03-25T12:50:38.971Z,97570.69
2023-03-25T12:53:14.534Z,97606.84
2023-03-25T12:55:53.501Z,97617.88
2023-03-25T12:58:31.962Z,97591.00
2023-03-25T13:01:28.943Z,97583.81
2023-03-25T13:04:09.928Z,97575.38
2023-03-25T13:06:46.311Z,97554.19
2023-03-25T13:09:36.200Z,97515.72
2023-03-25T13:12:24.369Z,97476.63
2023-03-25T13:15:28.067Z,97472.53
2023-03-25T13:18:22.749Z,97472.28
2023-03-25T13:21:13.243Z,97443.75
2023-03-25T13:23:43.595Z,97467.31
2023-03-25T13:26:14.594Z,97471.84
2023-03-25T13:28:47.496Z,97606.25
2023-03-25T13:31:32.475Z,97639.50
2023-03-25T13:34:07.142Z,97624.88
2023-03-25T13:36:42.607Z,97649.22
2023-03-25T13:39:17.607Z,97587.13
2023-03-25T13:41:51.279Z,97588.69
2023-03-25T13:44:26.519Z,97566.31
2023-03-25T13:47:14.805Z,97575.50
2023-03-25T13:50:14.053Z,97541.13
2023-03-25T13:52:45.502Z,97534.81
2023-03-25T13:55:21.795Z,97524.50
2023-03-25T13:58:09.382Z,97457.91
2023-03-25T14:00:57.874Z,97406.56
2023-03-25T14:03:43.272Z,97411.38
2023-03-25T14:06:30.029Z,97414.88
2023-03-25T14:09:24.353Z,97455.47
2023-03-25T14:12:21.107Z,97489.19
2023-03-25T14:15:11.450Z,97529.91
2023-03-25T14:17:39.706Z,97545.91
2023-03-25T14:20:10.546Z,97555.34
2023-03-25T14:22:43.846Z,97579.56
2023-03-25T14:25:19.296Z,97631.06
2023-03-25T14:27:49.286Z,97633.38
2023-03-25T14:30:23.620Z,97635.84
2023-03-25T14:32:52.002Z,97628.00
2023-03-25T14:35:34.498Z,97646.19
2023-03-25T14:38:19.111Z,97597.53
2023-03-25T14:41:02.176Z,97556.53
2023-03-25T14:43:46.162Z,97551.38
2023-03-25T14:46:19.250Z,97545.88
2023-03-25T14:48:50.234Z,97554.56
2023-03-25T14:51:42.561Z,97534.81
2023-03-25T14:54:18.130Z,97559.28
2023-03-25T14:56:56.550Z,97557.81
2023-03-25T14:59:51.791Z,97615.56
2023-03-25T15:02:33.340Z,97614.63
2023-03-25T15:05:04.462Z,97639.78
2023-03-25T15:07:54.402Z,97658.38
2023-03-25T15:10:31.742Z,97636.97
2023-03-25T15:13:46.610Z,97670.81
2023-03-25T15:16:18.868Z,97677.88
2023-03-25T15:18:47.086Z,97679.50
2023-03-25T15:21:14.677Z,97664.72
2023-03-25T15:23:59.730Z,97637.75
2023-03-25T15:26:39.245Z,97595.78
2023-03-25T15:29:18.065Z,97541.09
2023-03-25T15:31:56.107Z,97548.19
2023-03-25T15:34:59.908Z,97550.44
2023-03-25T15:37:52.705Z,97576.53
2023-03-25T15:40:37.356Z,97591.97
2023-03-25T15:43:50.175Z,97589.69
2023-03-25T15:46:49.778Z,97578.06
2023-03-25T15:49:56.187Z,97585.25
2023-03-25T15:53:14.089Z,97602.22
2023-03-25T15:55:46.380Z,97608.31
2023-03-25T15:58:37.379Z,97611.31
2023-03-25T16:01:29.281Z,97611.00
2023-03-25T16:04:11.181Z,97605.13
2023-03-25T16:06:44.838Z,97605.88
2023-03-25T16:09:19.585Z,97615.44
2023-03-25T16:11:46.689Z,97616.84
2023-03-25T16:14:16.262Z,97597.38
2023-03-25T16:16:55.047Z,97587.81
2023-03-25T16:19:24.371Z,97575.59
2023-03-25T16:21:54.195Z,97559.09
2023-03-25T16:24:25.472Z,97551.66
2023-03-25T16:26:52.780Z,97539.34
2023-03-25T16:29:23.171Z,97559.75
2023-03-25T16:32:02.534Z,97555.63
2023-03-25T16:34:40.599Z,97563.34
2023-03-25T16:37:07.714Z,97555.78
2023-03-25T16:39:37.181Z,97523.91
2023-03-25T16:42:24.634Z,97529.00
2023-03-25T16:44:51.542Z,97511.72
2023-03-25T16:47:18.495Z,97501.97
2023-03-25T16:49:49.999Z,97474.28
2023-03-25T16:52:22.487Z,97439.16
2023-03-25T16:54:51.760Z,97400.81
2023-03-25T16:57:26.214Z,97369.84
2023-03-25T16:59:54.630Z,97382.72
2023-03-25T17:02:27.590Z,97404.50
2023-03-25T17:04:57.268Z,97394.50
2023-03-25T17:07:27.541Z,97346.78
2023-03-25T17:10:04.337Z,97318.94
2023-03-25T17:12:31.920Z,97373.31
2023-03-25T17:15:10.064Z,97353.91
2023-03-25T17:17:46.501Z,97339.09
2023-03-25T17:20:24.715Z,97311.56
2023-03-25T17:22:59.481Z,97299.75
2023-03-25T17:25:48.215Z,97310.81
2023-03-25T17:28:43.163Z,97296.31
2023-03-25T17:31:32.348Z,97290.34
2023-03-25T17:33:58.732Z,97303.88
2023-03-25T17:36:26.037Z,97329.59
2023-03-25T17:38:55.955Z,97350.34
2023-03-25T17:41:28.391Z,97356.28
2023-03-25T17:43:55.888Z,97342.44
2023-03-25T17:46:26.906Z,97361.53
2023-03-25T17:48:57.213Z,97394.66
2023-03-25T17:51:26.292Z,97410.28
2023-03-25T17:53:53.423Z,97412.75
2023-03-25T17:56:27.547Z,97418.50
2023-03-25T17:59:07.504Z,97410.28
2023-03-25T18:01:35.324Z,97406.34
2023-03-25T18:04:02.179Z,97411.63
2023-03-25T18:06:28.647Z,97380.66
2023-03-25T18:08:55.163Z,97373.91
2023-03-25T18:11:21.810Z,97310.81
2023-03-25T18:13:48.591Z,97396.44
2023-03-25T18:16:21.953Z,97411.63
2023-03-25T18:18:48.958Z,97402.72
2023-03-25T18:21:17.667Z,97378.47
2023-03-25T18:23:47.683Z,97438.28
2023-03-25T18:26:17.741Z,97419.53
2023-03-25T18:28:48.510Z,97457.56
2023-03-25T18:31:17.583Z,97478.00
2023-03-25T18:33:46.715Z,97445.88
2023-03-25T18:36:13.642Z,97464.66
2023-03-25T18:38:40.256Z,97477.00
2023-03-25T18:41:07.023Z,97460.53
2023-03-25T18:43:33.679Z,97483.28
2023-03-25T18:46:00.758Z,97481.44
2023-03-25T18:48:27.322Z,97470.25
2023-03-25T18:50:59.490Z,97477.00
2023-03-25T18:53:28.401Z,97486.38
2023-03-25T18:55:59.477Z,97488.03
2023-03-25T18:58:29.987Z,97483.09
2023-03-25T19:00:57.409Z,97487.22
2023-03-25T19:03:31.805Z,97483.28
2023-03-25T19:06:00.140Z,97485.75
2023-03-25T19:08:28.373Z,97493.66
2023-03-25T19:11:04.803Z,97499.56
2023-03-25T19:13:34.894Z,97486.56
2023-03-25T19:16:01.460Z,97495.31
2023-03-25T19:18:32.794Z,97488.03
2023-03-25T19:20:59.610Z,97484.06
2023-03-25T19:23:27.109Z,97464.31
2023-03-25T19:25:53.747Z,97456.41
2023-03-25T19:28:22.641Z,97442.53
2023-03-25T19:30:51.505Z,97420.13
2023-03-25T19:33:19.615Z,97396.41
2023-03-25T19:35:51.273Z,97398.91
2023-03-25T19:38:22.668Z,97399.38
2023-03-25T19:40:51.583Z,97385.56
2023-03-25T19:43:18.410Z,97381.13
2023-03-25T19:45:44.934Z,97388.50
2023-03-25T19:48:12.034Z,97401.03
2023-03-25T19:50:40.740Z,97404.81
2023-03-25T19:53:07.441Z,97390.16
2023-03-25T19:55:34.294Z,97368.13
2023-03-25T19:58:01.058Z,97364.16
2023-03-25T20:00:30.466Z,97365.50
2023-03-25T20:03:00.637Z,97378.66
2023-03-25T20:05:29.553Z,97366.47
2023-03-25T20:07:56.293Z,97360.88
2023-03-25T20:10:26.304Z,97359.53
2023-03-25T20:12:52.776Z,97361.50
2023-03-25T20:15:20.412Z,97369.91
2023-03-25T20:17:49.626Z,97345.72
2023-03-25T20:20:16.499Z,97357.91
2023-03-25T20:22:43.148Z,97356.56
2023-03-25T20:25:11.367Z,97349.00
2023-03-25T20:27:39.650Z,97371.22
2023-03-25T20:30:08.273Z,97370.44
2023-03-25T20:32:41.365Z,97354.94
2023-03-25T20:35:10.947Z,97363.81
2023-03-25T20:37:38.707Z,97360.34
2023-03-25T20:40:06.924Z,97341.91
2023-03-25T20:42:33.765Z,97325.31
2023-03-25T20:45:00.647Z,97290.41
2023-03-25T20:47:28.362Z,97278.41
2023-03-25T20:49:55.034Z,97256.69
2023-03-25T20:52:21.548Z,97248.28
2023-03-25T20:54:49.748Z,97236.97
2023-03-25T20:57:16.564Z,97229.06
2023-03-25T20:59:43.507Z,97226.91
2023-03-25T21:02:11.478Z,97192.69
2023-03-25T21:04:38.532Z,97167.06
2023-03-25T21:07:05.181Z,97199.28
2023-03-25T21:09:31.743Z,97197.63
2023-03-25T21:11:58.316Z,97176.75
2023-03-25T21:14:24.825Z,97193.69
2023-03-25T21:16:51.336Z,97195.00
2023-03-25T21:19:18.460Z,97159.84
2023-03-25T21:21:45.007Z,97196.66
2023-03-25T21:24:12.417Z,97182.03
2023-03-25T21:26:39.059Z,97210.78
2023-03-25T21:29:05.533Z,97224.59
2023-03-25T21:31:32.200Z,97213.44
2023-03-25T21:34:03.577Z,97227.75
2023-03-25T21:36:30.077Z,97240.06
2023-03-25T21:39:01.631Z,97245.50
2023-03-25T21:41:30.382Z,97267.41
2023-03-25T21:43:57.208Z,97281.22
2023-03-25T21:46:24.426Z,97281.84
2023-03-25T21:48:51.400Z,97282.88
2023-03-25T21:51:18.260Z,97300.47
2023-03-25T21:53:47.895Z,97324.31
2023-03-25T21:56:17.827Z,97335.16
2023-03-25T21:58:45.068Z,97347.66
2023-03-25T22:01:23.490Z,97354.59
2023-03-25T22:03:55.127Z,97362.63
2023-03-25T22:06:24.409Z,97343.72
2023-03-25T22:08:51.127Z,97329.09
2023-03-25T22:11:23.311Z,97337.00
2023-03-25T22:13:50.463Z,97337.47
2023-03-25T22:16:19.344Z,97334.19
2023-03-25T22:18:46.341Z,97323.66
2023-03-25T22:21:19.383Z,97323.47
2023-03-25T22:23:47.861Z,97328.09
2023-03-25T22:26:18.214Z,97329.41
2023-03-25T22:28:45.380Z,97324.31
2023-03-25T22:31:14.624Z,97323.31
2023-03-25T22:33:45.196Z,97361.47
2023-03-25T22:36:15.064Z,97384.84
2023-03-25T22:38:43.565Z,97382.22
2023-03-25T22:41:11.530Z,97373.84
2023-03-25T22:43:38.312Z,97355.88
2023-03-25T22:46:08.659Z,97372.84
2023-03-25T22:48:39.086Z,97352.28
2023-03-25T22:51:07.388Z,97342.06
2023-03-25T22:53:33.820Z,97320.16
2023-03-25T22:56:00.213Z,97312.13
2023-03-25T22:58:28.837Z,97283.84
2023-03-25T23:00:56.727Z,97252.06
2023-03-25T23:03:25.070Z,97219.38
2023-03-25T23:06:02.108Z,97188.78
2023-03-25T23:08:31.736Z,97137.31
2023-03-25T23:11:07.858Z,97090.59
2023-03-25T23:13:35.725Z,97090.28
2023-03-25T23:16:07.530Z,97050.66
2023-03-25T23:18:36.549Z,96996.75
2023-03-25T23:21:03.638Z,96949.97
2023-03-25T23:23:30.138Z,96904.13
2023-03-25T23:26:03.593Z,96908.34
2023-03-25T23:28:34.292Z,96864.16
2023-03-25T23:31:01.722Z,96825.91
2023-03-25T23:33:28.455Z,96781.81
2023-03-25T23:36:02.726Z,96729.19
2023-03-25T23:38:30.346Z,96689.56
2023-03-25T23:41:06.195Z,96663.56
2023-03-25T23:43:33.735Z,96602.41
2023-03-25T23:46:01.172Z,96526.38
2023-03-25T23:48:27.692Z,96457.13
2023-03-25T23:50:57.001Z,96434.84
2023-03-25T23:53:24.803Z,96369.34
2023-03-25T23:55:54.178Z,96279.13
2023-03-25T23:58:25.923Z,96226.56
